Time;durP1;ratioP1;P1;durP2;ratioP2;P2;SDS_P1;SDS_P2;PMS_P1;PMS_P2;Temp;Humidity;BMP_temperature;BMP_pressure;BME280_temperature;BME280_humidity;BME280_pressure;Samples;Min_cycle;Max_cycle;Signal;HPM_P1;HPM_P2
2023/05/25 00:02:03;;;;;;;;;;;;;;;16.12;56.62;100682.34;5087440;28;1058;-60
2023/05/25 00:04:29;;;;;;;;;;;;;;;15.96;56.68;100673.28;5086174;28;1914;-60
2023/05/25 00:06:55;;;;;;;;;;;;;;;15.91;56.45;100671.34;5082390;28;1046;-60
2023/05/25 00:09:20;;;;;;;;;;;;;;;17.09;58.08;100667.72;5078311;28;1121;-61
2023/05/25 00:11:46;;;;;;;;;;;;;;;17.02;58.02;100662.53;5078096;28;1054;-63
2023/05/25 00:14:11;;;;;;;;;;;;;;;16.57;57.91;100664.25;5072389;28;888;-62
2023/05/25 00:16:39;;;;;;;;;;;;;;;16.28;57.53;100670.28;5072979;28;1198;-57
2023/05/25 00:19:05;;;;;;;;;;;;;;;16.15;57.14;100671.66;5078237;28;1102;-57
2023/05/25 00:21:32;;;;;;;;;;;;;;;16.06;56.88;100674.13;5077965;28;1023;-60
2023/05/25 00:23:58;;;;;;;;;;;;;;;16.20;58.31;100668.94;5077838;28;1914;-59
2023/05/25 00:26:24;;;;;;;;;;;;;;;17.54;57.35;100670.56;5089270;28;1138;-61
2023/05/25 00:28:50;;;;;;;;;;;;;;;17.01;57.77;100671.06;5077456;28;1170;-58
2023/05/25 00:31:15;;;;;;;;;;;;;;;16.62;57.73;100664.25;5077847;28;1241;-58
2023/05/25 00:33:41;;;;;;;;;;;;;;;16.36;57.64;100666.19;5077500;28;1527;-59
2023/05/25 00:36:07;;;;;;;;;;;;;;;16.24;56.89;100667.28;5059516;28;1264;-60
2023/05/25 00:38:33;;;;;;;;;;;;;;;16.11;56.84;100672.47;5074545;28;956;-58
2023/05/25 00:40:58;;;;;;;;;;;;;;;16.00;56.76;100675.19;5054243;28;1531;-60
2023/05/25 00:43:24;;;;;;;;;;;;;;;16.53;58.25;100676.88;5077608;28;1901;-61
2023/05/25 00:45:50;;;;;;;;;;;;;;;17.62;57.41;100670.00;5077343;28;1059;-61
2023/05/25 00:48:16;;;;;;;;;;;;;;;16.85;58.14;100673.00;5077101;28;1444;-60
2023/05/25 00:50:42;;;;;;;;;;;;;;;16.51;57.96;100677.16;5089586;28;1054;-59
2023/05/25 00:53:08;;;;;;;;;;;;;;;16.35;57.22;100665.34;5077118;28;1385;-59
2023/05/25 00:55:38;;;;;;;;;;;;;;;16.20;57.05;100662.59;5059088;28;1143;-60
2023/05/25 00:58:05;;;;;;;;;;;;;;;16.13;56.63;100668.38;5077090;28;1111;-60
2023/05/25 01:00:32;;;;;;;;;;;;;;;16.02;56.44;100663.94;5076700;28;1143;-59
2023/05/25 01:02:58;;;;;;;;;;;;;;;16.42;58.38;100665.91;5082579;28;899;-59
2023/05/25 01:05:29;;;;;;;;;;;;;;;17.43;57.72;100662.38;5059286;28;1985;-60
2023/05/25 01:07:56;;;;;;;;;;;;;;;16.70;58.10;100662.84;5077120;28;1062;-57
2023/05/25 01:10:22;;;;;;;;;;;;;;;16.41;57.47;100660.66;5058499;28;1079;-58
2023/05/25 01:12:47;;;;;;;;;;;;;;;16.22;57.48;100658.50;5059529;28;1144;-59
2023/05/25 01:15:13;;;;;;;;;;;;;;;16.10;56.96;100657.13;5067377;28;1208;-57
2023/05/25 01:17:38;;;;;;;;;;;;;;;15.96;57.08;100665.88;5049619;28;1106;-58
2023/05/25 01:20:06;;;;;;;;;;;;;;;15.91;56.33;100672.16;5076333;28;1026;-62
2023/05/25 01:22:32;;;;;;;;;;;;;;;16.81;58.28;100672.72;5058921;28;1217;-61
2023/05/25 01:25:01;;;;;;;;;;;;;;;17.18;57.74;100665.22;5058906;28;1914;-59
2023/05/25 01:27:29;;;;;;;;;;;;;;;16.56;58.10;100665.34;5049071;28;1106;-58
2023/05/25 01:29:55;;;;;;;;;;;;;;;16.30;57.83;100659.88;5058983;28;1222;-60
2023/05/25 01:32:21;;;;;;;;;;;;;;;16.14;57.47;100663.69;5058774;28;1246;-61
2023/05/25 01:34:46;;;;;;;;;;;;;;;16.05;57.08;100652.47;5076288;28;1090;-61
2023/05/25 01:37:12;;;;;;;;;;;;;;;15.97;56.61;100653.81;5058706;28;1136;-61
2023/05/25 01:39:38;;;;;;;;;;;;;;;16.46;58.27;100660.69;5062927;28;983;-61
2023/05/25 01:42:04;;;;;;;;;;;;;;;17.58;57.25;100655.16;5076440;28;1018;-62
2023/05/25 01:44:30;;;;;;;;;;;;;;;16.77;58.16;100653.25;5076673;28;1910;-61
2023/05/25 01:47:02;;;;;;;;;;;;;;;16.45;57.96;100656.28;5058492;28;1164;-62
2023/05/25 01:49:33;;;;;;;;;;;;;;;16.28;57.34;100651.06;5058008;28;1142;-61
2023/05/25 01:52:05;;;;;;;;;;;;;;;16.17;56.86;100660.41;5041942;28;1098;-61
2023/05/25 01:54:37;;;;;;;;;;;;;;;16.04;56.72;100659.03;5045936;28;1350;-61
2023/05/25 01:57:05;;;;;;;;;;;;;;;16.19;57.79;100650.81;5058350;28;1244;-62
2023/05/25 01:59:31;;;;;;;;;;;;;;;17.47;57.55;100653.56;5057525;28;1110;-62
2023/05/25 02:01:57;;;;;;;;;;;;;;;16.75;58.15;100651.88;5057497;28;1057;-63
2023/05/25 02:04:22;;;;;;;;;;;;;;;16.45;57.77;100659.03;5058168;28;1898;-60
2023/05/25 02:06:50;;;;;;;;;;;;;;;16.30;57.14;100650.81;5058274;28;1122;-60
2023/05/25 02:09:17;;;;;;;;;;;;;;;16.18;57.09;100659.31;5038477;28;1199;-63
2023/05/25 02:11:43;;;;;;;;;;;;;;;16.06;56.63;100667.78;5071007;28;1135;-59
2023/05/25 02:14:09;;;;;;;;;;;;;;;15.95;56.72;100672.47;5076098;28;1118;-59
2023/05/25 02:16:35;;;;;;;;;;;;;;;16.20;57.99;100676.31;5075771;28;1066;-59
2023/05/25 02:19:00;;;;;;;;;;;;;;;17.46;57.59;100661.00;5075725;28;1118;-60
2023/05/25 02:21:27;;;;;;;;;;;;;;;16.89;58.19;100676.88;5075571;28;1154;-59
2023/05/25 02:23:52;;;;;;;;;;;;;;;16.49;58.13;100673.84;5057780;28;1910;-59
2023/05/25 02:26:18;;;;;;;;;;;;;;;16.29;57.48;100677.44;5076122;28;1170;-60
2023/05/25 02:28:44;;;;;;;;;;;;;;;16.11;57.44;100675.22;5050877;28;1123;-60
2023/05/25 02:31:09;;;;;;;;;;;;;;;16.08;56.80;100677.41;5080054;28;1050;-59
2023/05/25 02:33:35;;;;;;;;;;;;;;;15.96;56.82;100682.31;5062158;28;1354;-59
2023/05/25 02:36:00;;;;;;;;;;;;;;;16.54;58.00;100678.53;5080308;28;1079;-59
2023/05/25 02:38:26;;;;;;;;;;;;;;;17.67;57.14;100683.72;5084999;28;1178;-59
2023/05/25 02:40:52;;;;;;;;;;;;;;;16.84;58.17;100688.63;5052140;28;1274;-59
2023/05/25 02:43:19;;;;;;;;;;;;;;;16.54;57.65;100689.50;5061955;28;1221;-59
2023/05/25 02:45:45;;;;;;;;;;;;;;;16.29;57.61;100688.41;5079320;28;1909;-59
2023/05/25 02:48:11;;;;;;;;;;;;;;;16.21;57.23;100694.44;5061633;28;1299;-60
2023/05/25 02:50:36;;;;;;;;;;;;;;;16.14;56.87;100688.41;5061765;28;1096;-56
2023/05/25 02:53:06;;;;;;;;;;;;;;;15.98;56.78;100696.59;5051440;28;1216;-56
2023/05/25 02:55:32;;;;;;;;;;;;;;;16.00;56.84;100696.31;5079564;28;1150;-56
2023/05/25 02:57:59;;;;;;;;;;;;;;;17.24;57.94;100697.91;5061466;28;1445;-56
2023/05/25 03:00:50;;;;;;;;;;;;;;;16.77;58.22;100699.09;5074768;28;1409;-56
2023/05/25 03:03:16;;;;;;;;;;;;;;;16.41;58.04;100701.84;5071779;28;1114;-56
2023/05/25 03:05:41;;;;;;;;;;;;;;;16.29;57.56;100704.88;5061280;28;1913;-56
2023/05/25 03:08:07;;;;;;;;;;;;;;;16.12;57.14;100701.53;5061571;28;1304;-56
2023/05/25 03:10:33;;;;;;;;;;;;;;;15.99;56.90;100711.97;5061299;28;1403;-56
2023/05/25 03:12:59;;;;;;;;;;;;;;;15.94;56.74;100711.94;5079446;28;1062;-56
2023/05/25 03:15:24;;;;;;;;;;;;;;;16.63;58.42;100709.81;5083735;28;1228;-56
2023/05/25 03:17:50;;;;;;;;;;;;;;;17.68;57.30;100715.59;5060971;28;1237;-56
2023/05/25 03:20:15;;;;;;;;;;;;;;;16.84;58.06;100715.28;5061163;28;1123;-56
2023/05/25 03:22:45;;;;;;;;;;;;;;;16.46;57.91;100712.81;5060903;28;1334;-56
2023/05/25 03:25:11;;;;;;;;;;;;;;;16.27;57.38;100709.81;5078973;28;1910;-56
2023/05/25 03:27:37;;;;;;;;;;;;;;;16.15;57.33;100709.25;5072915;28;1158;-56
2023/05/25 03:30:04;;;;;;;;;;;;;;;16.03;57.05;100718.56;5060678;28;1582;-56
2023/05/25 03:32:31;;;;;;;;;;;;;;;15.98;56.67;100714.97;5079184;28;1042;-56
2023/05/25 03:34:56;;;;;;;;;;;;;;;15.88;56.66;100722.09;5060829;28;1214;-56
2023/05/25 03:37:22;;;;;;;;;;;;;;;16.24;58.00;100713.09;5060703;28;1161;-61
2023/05/25 03:39:47;;;;;;;;;;;;;;;17.48;57.75;100712.94;5065455;28;1218;-61
2023/05/25 03:42:13;;;;;;;;;;;;;;;16.86;58.10;100722.16;5078385;28;1217;-61
2023/05/25 03:44:38;;;;;;;;;;;;;;;16.48;57.98;100715.28;5060573;28;1965;-61
2023/05/25 03:47:06;;;;;;;;;;;;;;;16.24;57.78;100718.56;5047042;28;1332;-61
2023/05/25 03:49:32;;;;;;;;;;;;;;;16.07;57.42;100716.94;5038722;28;1288;-62
2023/05/25 03:52:00;;;;;;;;;;;;;;;15.94;57.41;100719.34;5050597;28;1162;-60
2023/05/25 03:54:26;;;;;;;;;;;;;;;15.96;57.00;100723.47;5024078;28;1313;-60
2023/05/25 03:56:51;;;;;;;;;;;;;;;16.74;58.63;100725.16;5037320;28;1639;-60
2023/05/25 03:59:17;;;;;;;;;;;;;;;17.28;57.92;100714.66;5038302;28;1023;-61
2023/05/25 04:01:43;;;;;;;;;;;;;;;16.65;58.50;100723.25;5036748;28;1317;-61
2023/05/25 04:04:08;;;;;;;;;;;;;;;16.38;57.88;100724.34;5043909;28;1971;-61
2023/05/25 04:06:38;;;;;;;;;;;;;;;16.25;57.49;100717.47;5036711;28;1126;-63
2023/05/25 04:09:05;;;;;;;;;;;;;;;16.10;57.14;100728.44;5036941;28;1265;-64
2023/05/25 04:11:32;;;;;;;;;;;;;;;15.97;57.16;100733.34;5036864;28;1297;-60
2023/05/25 04:13:58;;;;;;;;;;;;;;;15.94;56.89;100733.88;5037890;28;1066;-63
2023/05/25 04:16:27;;;;;;;;;;;;;;;16.46;58.08;100731.22;5038004;28;1614;-63
2023/05/25 04:18:54;;;;;;;;;;;;;;;17.49;57.59;100720.06;5036656;28;1158;-64
2023/05/25 04:21:20;;;;;;;;;;;;;;;16.74;58.34;100730.66;5036705;28;1221;-61
2023/05/25 04:23:45;;;;;;;;;;;;;;;16.46;57.92;100729.28;5037190;28;1965;-62
2023/05/25 04:26:11;;;;;;;;;;;;;;;16.27;57.52;100733.66;5023578;28;1441;-61
2023/05/25 04:28:40;;;;;;;;;;;;;;;16.16;57.25;100735.56;5025547;28;1151;-61
2023/05/25 04:31:13;;;;;;;;;;;;;;;16.03;56.94;100746.00;5036009;28;1031;-59
2023/05/25 04:33:48;;;;;;;;;;;;;;;15.95;57.07;100738.28;5036408;28;1301;-62
2023/05/25 04:36:21;;;;;;;;;;;;;;;16.81;58.21;100744.13;5025807;28;1288;-61
2023/05/25 04:38:47;;;;;;;;;;;;;;;17.04;58.06;100742.75;5036761;28;1167;-63
2023/05/25 04:41:13;;;;;;;;;;;;;;;16.50;58.38;100746.06;5021751;28;1117;-63
2023/05/25 04:43:44;;;;;;;;;;;;;;;16.31;57.77;100749.31;5036165;28;1905;-61
2023/05/25 04:46:12;;;;;;;;;;;;;;;16.17;57.31;100746.28;5054244;28;1313;-61
2023/05/25 04:48:38;;;;;;;;;;;;;;;16.07;57.05;100747.09;5043219;28;1127;-60
2023/05/25 04:51:05;;;;;;;;;;;;;;;16.07;57.60;100749.84;5078860;28;1086;-60
2023/05/25 04:53:34;;;;;;;;;;;;;;;17.38;57.68;100752.28;5066072;28;1919;-59
2023/05/25 04:55:59;;;;;;;;;;;;;;;16.90;58.14;100758.13;5059118;28;1351;-59
2023/05/25 04:58:25;;;;;;;;;;;;;;;16.55;57.99;100757.84;5059074;28;1150;-58
2023/05/25 05:00:51;;;;;;;;;;;;;;;17.57;56.03;100760.72;5076701;28;1107;-59
2023/05/25 05:03:16;;;;;;;;;;;;;;;16.62;55.71;100757.59;5061884;28;1338;-58
2023/05/25 05:05:43;;;;;;;;;;;;;;;16.50;53.93;100754.28;5058118;28;1906;-57
2023/05/25 05:08:13;;;;;;;;;;;;;;;16.42;53.42;100764.72;5052278;28;1152;-59
2023/05/25 05:10:39;;;;;;;;;;;;;;;16.28;52.19;100760.00;5076824;28;1049;-64
2023/05/25 05:13:04;;;;;;;;;;;;;;;16.72;53.71;100763.06;5076905;28;1225;-59
2023/05/25 05:15:31;;;;;;;;;;;;;;;16.71;54.04;100757.84;5063160;28;1181;-59
2023/05/25 05:17:57;;;;;;;;;;;;;;;16.31;52.61;100743.81;5065425;28;2239;-59
2023/05/25 05:20:23;;;;;;;;;;;;;;;16.88;53.80;100763.91;5065576;28;1329;-59
2023/05/25 05:22:49;;;;;;;;;;;;;;;16.58;53.41;100759.22;5052307;28;1241;-60
2023/05/25 05:25:16;;;;;;;;;;;;;;;16.60;52.73;100759.78;5058635;28;1975;-59
2023/05/25 05:27:41;;;;;;;;;;;;;;;17.47;54.29;100760.78;5062907;28;1375;-61
2023/05/25 05:30:14;;;;;;;;;;;;;;;16.82;53.31;100761.44;5058758;28;1154;-60
2023/05/25 05:32:39;;;;;;;;;;;;;;;16.57;51.58;100760.31;5058651;28;1291;-61
2023/05/25 05:35:07;;;;;;;;;;;;;;;16.38;50.75;100773.75;5058351;28;1380;-60
2023/05/25 05:37:45;;;;;;;;;;;;;;;17.47;53.41;100771.78;5058439;28;1239;-60
2023/05/25 05:40:11;;;;;;;;;;;;;;;16.84;52.50;100775.69;5065975;28;1173;-60
2023/05/25 05:42:39;;;;;;;;;;;;;;;16.55;51.03;100784.47;5048675;28;1387;-62
2023/05/25 05:45:05;;;;;;;;;;;;;;;16.49;49.98;100785.56;5058338;28;1898;-63
2023/05/25 05:47:31;;;;;;;;;;;;;;;16.97;52.15;100783.44;5076092;28;1113;-58
2023/05/25 05:49:56;;;;;;;;;;;;;;;16.66;51.06;100779.81;5076550;28;1129;-60
2023/05/25 05:52:22;;;;;;;;;;;;;;;16.54;49.92;100780.09;5060884;28;1308;-59
2023/05/25 05:54:48;;;;;;;;;;;;;;;16.42;49.24;100788.56;5065561;28;1076;-61
2023/05/25 05:57:15;;;;;;;;;;;;;;;17.49;51.22;100792.41;5057979;28;1170;-60
2023/05/25 05:59:41;;;;;;;;;;;;;;;16.83;51.16;100793.25;5058144;28;1314;-60
2023/05/25 06:02:06;;;;;;;;;;;;;;;16.59;50.13;100791.91;5075148;28;1066;-63
2023/05/25 06:04:32;;;;;;;;;;;;;;;16.94;50.53;100786.69;5067610;28;1905;-64
2023/05/25 06:06:57;;;;;;;;;;;;;;;16.92;51.11;100788.91;5079358;28;1102;-62
2023/05/25 06:09:23;;;;;;;;;;;;;;;16.64;50.47;100782.03;5057904;28;1127;-63
2023/05/25 06:11:49;;;;;;;;;;;;;;;16.63;49.41;100788.59;5058090;28;1264;-62
2023/05/25 06:14:16;;;;;;;;;;;;;;;16.48;48.76;100783.91;5058264;28;1366;-59
2023/05/25 06:16:42;;;;;;;;;;;;;;;16.55;48.78;100784.47;5052977;28;1109;-59
2023/05/25 06:19:08;;;;;;;;;;;;;;;17.25;50.47;100782.00;5064473;28;1099;-64
2023/05/25 06:21:33;;;;;;;;;;;;;;;16.79;50.30;100784.78;5044650;28;1128;-61
2023/05/25 06:23:59;;;;;;;;;;;;;;;16.70;49.29;100781.72;5075854;28;1907;-63
2023/05/25 06:26:25;;;;;;;;;;;;;;;16.73;49.10;100783.94;5058037;28;1202;-62
2023/05/25 06:28:51;;;;;;;;;;;;;;;17.13;50.37;100780.66;5085015;28;1114;-63
2023/05/25 06:31:17;;;;;;;;;;;;;;;16.86;49.62;100784.50;5054505;28;1124;-61
2023/05/25 06:33:43;;;;;;;;;;;;;;;16.56;49.19;100780.63;5051158;28;1178;-59
2023/05/25 06:36:08;;;;;;;;;;;;;;;16.65;48.32;100776.25;5056933;28;1127;-64
2023/05/25 06:38:34;;;;;;;;;;;;;;;16.49;48.05;100775.41;5057636;28;1198;-64
2023/05/25 06:41:04;;;;;;;;;;;;;;;16.65;48.57;100784.50;5061840;28;1100;-62
2023/05/25 06:43:30;;;;;;;;;;;;;;;17.66;50.19;100781.06;5057318;28;1155;-65
2023/05/25 06:46:16;;;;;;;;;;;;;;;16.94;50.16;100781.22;5042748;28;1287;-61
2023/05/25 06:48:42;;;;;;;;;;;;;;;16.75;49.53;100789.97;5071719;28;1138;-63
2023/05/25 06:51:07;;;;;;;;;;;;;;;17.34;49.76;100796.00;5057339;28;1241;-58
2023/05/25 06:53:33;;;;;;;;;;;;;;;17.09;50.19;100789.44;5085238;28;1233;-62
2023/05/25 06:56:00;;;;;;;;;;;;;;;16.92;49.20;100783.41;5074539;28;1135;-60
2023/05/25 06:58:26;;;;;;;;;;;;;;;16.79;48.83;100781.19;5078655;28;1203;-62
2023/05/25 07:00:51;;;;;;;;;;;;;;;16.62;48.27;100779.56;5075760;28;1058;-63
2023/05/25 07:03:17;;;;;;;;;;;;;;;16.59;48.09;100791.91;5074941;28;1134;-60
2023/05/25 07:05:42;;;;;;;;;;;;;;;17.33;49.20;100788.84;5084958;28;1918;-60
2023/05/25 07:08:08;;;;;;;;;;;;;;;16.89;49.35;100789.47;5075095;28;1070;-63
2023/05/25 07:10:33;;;;;;;;;;;;;;;16.75;48.60;100783.66;5075423;28;1118;-62
2023/05/25 07:12:59;;;;;;;;;;;;;;;17.58;49.30;100776.94;5076336;28;1213;-63
2023/05/25 07:15:24;;;;;;;;;;;;;;;17.02;49.63;100775.16;5079043;28;1074;-62
2023/05/25 07:17:50;;;;;;;;;;;;;;;16.83;49.10;100777.63;5079513;28;832;-64
2023/05/25 07:20:15;;;;;;;;;;;;;;;16.67;48.53;100782.28;5078729;28;1043;-63
2023/05/25 07:22:42;;;;;;;;;;;;;;;16.67;47.60;100781.47;5079179;28;1035;-62
2023/05/25 07:25:08;;;;;;;;;;;;;;;16.80;48.28;100783.66;5078692;28;1909;-62
2023/05/25 07:27:34;;;;;;;;;;;;;;;17.07;49.39;100775.16;5078799;28;1030;-62
2023/05/25 07:30:00;;;;;;;;;;;;;;;16.84;48.90;100787.50;5086654;28;895;-58
2023/05/25 07:32:26;;;;;;;;;;;;;;;16.73;48.22;100775.72;5078862;28;1069;-58
2023/05/25 07:34:51;;;;;;;;;;;;;;;16.69;47.72;100780.09;5078971;28;1190;-57
2023/05/25 07:37:16;;;;;;;;;;;;;;;17.14;48.72;100776.78;5078496;28;1066;-59
2023/05/25 07:39:42;;;;;;;;;;;;;;;17.28;49.69;100775.13;5060651;28;1170;-59
2023/05/25 07:42:09;;;;;;;;;;;;;;;16.88;49.43;100774.91;5079943;28;895;-61
2023/05/25 07:44:35;;;;;;;;;;;;;;;16.82;48.43;100767.75;5078338;28;1967;-59
2023/05/25 07:47:00;;;;;;;;;;;;;;;16.70;48.30;100770.75;5060351;28;1077;-60
2023/05/25 07:49:26;;;;;;;;;;;;;;;16.69;47.60;100774.63;5078110;28;1396;-63
2023/05/25 07:51:51;;;;;;;;;;;;;;;16.57;47.40;100765.81;5078389;28;1142;-62
2023/05/25 07:54:17;;;;;;;;;;;;;;;16.55;47.36;100773.47;5062367;28;1138;-62
2023/05/25 07:56:42;;;;;;;;;;;;;;;16.48;47.10;100772.94;5058882;28;1171;-65
2023/05/25 07:59:08;;;;;;;;;;;;;;;17.17;48.75;100779.00;5078452;28;1054;-60
2023/05/25 08:01:34;;;;;;;;;;;;;;;17.61;49.58;100773.66;5078164;28;1066;-65
2023/05/25 08:04:00;;;;;;;;;;;;;;;18.87;50.08;100786.41;5078212;28;1972;-63
2023/05/25 08:06:25;;;;;;;;;;;;;;;18.03;51.47;100790.81;5083641;28;1475;-61
2023/05/25 08:08:51;;;;;;;;;;;;;;;17.52;50.48;100783.59;5078075;28;1154;-66
2023/05/25 08:11:16;;;;;;;;;;;;;;;17.28;49.61;100792.44;5078100;28;1050;-62
2023/05/25 08:13:42;;;;;;;;;;;;;;;17.04;49.20;100800.44;5086359;28;1042;-64
2023/05/25 08:16:08;;;;;;;;;;;;;;;16.96;48.41;100797.41;5098106;28;1026;-63
2023/05/25 08:18:33;;;;;;;;;;;;;;;17.03;47.93;100792.47;5092751;28;1050;-65
2023/05/25 08:20:59;;;;;;;;;;;;;;;16.90;47.37;100791.94;5088578;28;1090;-59
2023/05/25 08:23:25;;;;;;;;;;;;;;;16.84;47.28;100792.19;5097710;28;1003;-61
2023/05/25 08:25:51;;;;;;;;;;;;;;;16.73;47.29;100786.69;5079032;28;1905;-62
2023/05/25 08:28:16;;;;;;;;;;;;;;;16.72;46.77;100787.78;5097629;28;1104;-63
2023/05/25 08:30:43;;;;;;;;;;;;;;;16.59;46.88;100785.56;5079488;28;883;-62
2023/05/25 08:33:09;;;;;;;;;;;;;;;17.14;48.32;100796.03;5077556;28;1051;-61
2023/05/25 08:35:38;;;;;;;;;;;;;;;17.04;49.03;100803.19;5077828;28;1197;-61
2023/05/25 08:38:03;;;;;;;;;;;;;;;16.88;48.45;100796.03;5077536;28;1233;-61
2023/05/25 08:40:29;;;;;;;;;;;;;;;16.76;47.92;100790.81;5077338;28;1225;-61
2023/05/25 08:42:54;;;;;;;;;;;;;;;16.72;47.23;100797.94;5076436;28;926;-61
2023/05/25 08:45:20;;;;;;;;;;;;;;;16.61;47.15;100794.38;5077200;28;1913;-61
2023/05/25 08:47:45;;;;;;;;;;;;;;;16.62;46.73;100803.41;5059359;28;1032;-61
2023/05/25 08:50:11;;;;;;;;;;;;;;;17.61;48.59;100794.81;5059201;28;1062;-63
2023/05/25 08:52:39;;;;;;;;;;;;;;;17.06;48.92;100795.47;5077303;28;1035;-62
2023/05/25 08:55:05;;;;;;;;;;;;;;;16.81;48.53;100787.25;5059068;28;894;-59
2023/05/25 08:57:36;;;;;;;;;;;;;;;16.70;47.90;100781.72;5076950;28;1039;-62
2023/05/25 09:00:11;;;;;;;;;;;;;;;16.68;47.38;100781.19;5059250;28;1028;-61
2023/05/25 09:02:50;;;;;;;;;;;;;;;16.58;47.17;100789.44;5063928;28;1127;-60
2023/05/25 09:05:15;;;;;;;;;;;;;;;16.56;46.50;100777.88;5060484;28;1914;-59
2023/05/25 09:07:41;;;;;;;;;;;;;;;17.47;47.95;100785.53;5059439;28;1217;-63
2023/05/25 09:10:07;;;;;;;;;;;;;;;16.97;48.15;100788.06;5059515;28;1087;-59
2023/05/25 09:12:33;;;;;;;;;;;;;;;16.75;47.66;100789.97;5058905;28;1095;-60
2023/05/25 09:14:58;;;;;;;;;;;;;;;17.44;48.38;100800.66;5076730;28;1069;-60
2023/05/25 09:17:24;;;;;;;;;;;;;;;16.99;48.68;100794.94;5080379;28;1045;-60
2023/05/25 09:19:49;;;;;;;;;;;;;;;16.89;47.85;100783.97;5080811;28;1093;-60
2023/05/25 09:22:15;;;;;;;;;;;;;;;16.75;47.62;100800.16;5076690;28;1222;-59
2023/05/25 09:24:42;;;;;;;;;;;;;;;16.60;47.36;100798.19;5076478;28;1964;-61
2023/05/25 09:27:11;;;;;;;;;;;;;;;16.66;46.62;100793.53;5059258;28;1054;-60
2023/05/25 09:29:37;;;;;;;;;;;;;;;16.56;46.71;100783.38;5078000;28;1142;-60
2023/05/25 09:32:05;;;;;;;;;;;;;;;17.71;47.90;100783.81;5076699;28;1141;-59
2023/05/25 09:34:33;;;;;;;;;;;;;;;16.97;48.60;100786.16;5078367;28;1042;-59
2023/05/25 09:36:59;;;;;;;;;;;;;;;16.82;48.07;100788.91;5097029;28;1062;-57
2023/05/25 09:39:25;;;;;;;;;;;;;;;16.73;47.63;100803.16;5083119;28;1196;-59
2023/05/25 09:41:51;;;;;;;;;;;;;;;17.48;48.03;100795.44;5096153;28;1003;-60
2023/05/25 09:44:17;;;;;;;;;;;;;;;17.00;48.33;100801.25;5083144;28;1917;-59
2023/05/25 09:46:43;;;;;;;;;;;;;;;16.81;48.21;100798.22;5096078;28;1164;-57
2023/05/25 09:49:09;;;;;;;;;;;;;;;17.44;48.93;100800.66;5042060;28;1063;-56
2023/05/25 09:51:35;;;;;;;;;;;;;;;16.93;48.64;100796.06;5053792;28;1047;-58
2023/05/25 09:54:01;;;;;;;;;;;;;;;16.83;47.80;100796.84;5095529;28;1015;-56
2023/05/25 09:56:27;;;;;;;;;;;;;;;16.73;47.23;100792.19;5096163;28;1019;-60
2023/05/25 09:58:53;;;;;;;;;;;;;;;16.60;46.78;100792.72;5079853;28;1146;-60
2023/05/25 10:01:18;;;;;;;;;;;;;;;17.14;47.75;100793.28;5071908;28;1107;-58
2023/05/25 10:03:47;;;;;;;;;;;;;;;17.13;48.60;100806.19;5092870;28;1910;-59
2023/05/25 10:06:16;;;;;;;;;;;;;;;16.83;48.06;100790.53;5085716;28;1178;-55
2023/05/25 10:08:44;;;;;;;;;;;;;;;16.70;47.79;100809.19;5068267;28;1158;-55
2023/05/25 10:11:13;;;;;;;;;;;;;;;16.61;47.14;100805.34;5076606;28;1118;-59
2023/05/25 10:13:39;;;;;;;;;;;;;;;17.31;48.37;100799.31;5060706;28;1146;-57
2023/05/25 10:16:04;;;;;;;;;;;;;;;16.80;48.71;100797.38;5061621;28;1118;-54
2023/05/25 10:18:31;;;;;;;;;;;;;;;16.71;48.04;100802.59;5072149;28;884;-56
2023/05/25 10:21:00;;;;;;;;;;;;;;;16.66;47.23;100802.63;5096091;28;1010;-56
2023/05/25 10:23:25;;;;;;;;;;;;;;;16.63;47.00;100803.16;5080119;28;1205;-55
2023/05/25 10:25:52;;;;;;;;;;;;;;;16.60;46.71;100806.44;5037339;28;1902;-56
2023/05/25 10:28:26;;;;;;;;;;;;;;;17.76;48.05;100802.19;5087848;28;1047;-57
2023/05/25 10:30:52;;;;;;;;;;;;;;;17.00;49.18;100795.75;5089158;28;1162;-57
2023/05/25 10:33:18;;;;;;;;;;;;;;;16.90;48.32;100794.69;5071154;28;1177;-57
2023/05/25 10:35:44;;;;;;;;;;;;;;;16.77;47.64;100790.53;5074931;28;1063;-56
2023/05/25 10:38:09;;;;;;;;;;;;;;;16.78;47.17;100785.84;5068920;28;1074;-59
2023/05/25 10:40:35;;;;;;;;;;;;;;;16.69;46.91;100785.59;5077735;28;1094;-59
2023/05/25 10:43:00;;;;;;;;;;;;;;;16.60;46.69;100793.53;5073745;28;1114;-60
2023/05/25 10:45:26;;;;;;;;;;;;;;;16.54;46.71;100804.81;5054830;28;1989;-64
2023/05/25 10:47:51;;;;;;;;;;;;;;;17.62;47.94;100793.72;5056497;28;1215;-61
2023/05/25 10:50:21;;;;;;;;;;;;;;;16.95;48.63;100785.59;5041860;28;1222;-60
2023/05/25 10:52:56;;;;;;;;;;;;;;;16.82;47.88;100784.22;5059345;28;1313;-58
2023/05/25 10:55:26;;;;;;;;;;;;;;;16.64;47.73;100780.09;5065105;28;925;-61
2023/05/25 10:58:08;;;;;;;;;;;;;;;16.69;47.04;100791.09;5088824;28;1111;-60
2023/05/25 11:00:33;;;;;;;;;;;;;;;17.40;48.35;100783.06;5079229;28;1113;-62
2023/05/25 11:02:59;;;;;;;;;;;;;;;16.86;48.67;100773.50;5095064;28;1067;-59
2023/05/25 11:05:24;;;;;;;;;;;;;;;16.76;47.92;100777.91;5078388;28;1969;-62
2023/05/25 11:07:53;;;;;;;;;;;;;;;16.70;47.42;100772.69;5062893;28;952;-59
2023/05/25 11:10:37;;;;;;;;;;;;;;;16.68;46.92;100766.66;5092143;28;1150;-61
2023/05/25 11:13:21;;;;;;;;;;;;;;;16.74;47.39;100771.84;5079391;28;1114;-57
2023/05/25 11:16:06;;;;;;;;;;;;;;;17.37;48.95;100778.94;5072319;28;1083;-61
2023/05/25 11:18:40;;;;;;;;;;;;;;;16.94;48.50;100770.22;5079446;28;1612;-58
2023/05/25 11:21:11;;;;;;;;;;;;;;;16.86;47.76;100762.53;5099881;28;1022;-61
2023/05/25 11:23:53;;;;;;;;;;;;;;;16.78;47.22;100772.13;5071597;28;1046;-60
2023/05/25 11:26:19;;;;;;;;;;;;;;;17.87;48.53;100765.28;5089484;28;1153;-58
2023/05/25 11:28:47;;;;;;;;;;;;;;;17.44;49.37;100765.72;5078615;28;1067;-60
2023/05/25 11:31:13;;;;;;;;;;;;;;;17.03;49.15;100760.34;5076692;28;1064;-59
2023/05/25 11:33:38;;;;;;;;;;;;;;;17.00;48.11;100757.31;5067015;28;1111;-60
2023/05/25 11:36:04;;;;;;;;;;;;;;;16.88;47.68;100754.81;5083407;28;1121;-61
2023/05/25 11:38:30;;;;;;;;;;;;;;;16.73;47.30;100748.25;5050901;28;1043;-59
2023/05/25 11:40:55;;;;;;;;;;;;;;;16.71;47.32;100741.38;5071273;28;1103;-59
2023/05/25 11:43:22;;;;;;;;;;;;;;;16.68;46.91;100740.00;5071554;28;1102;-61
2023/05/25 11:45:54;;;;;;;;;;;;;;;16.82;47.57;100743.03;5050485;28;1917;-63
2023/05/25 11:48:19;;;;;;;;;;;;;;;17.53;48.93;100737.66;5087111;28;1445;-61
2023/05/25 11:50:45;;;;;;;;;;;;;;;17.04;48.69;100734.50;5087984;28;1099;-60
2023/05/25 11:53:11;;;;;;;;;;;;;;;16.95;47.94;100733.41;5067642;28;1122;-64
2023/05/25 11:55:39;;;;;;;;;;;;;;;16.81;47.39;100726.81;5080073;28;1043;-60
2023/05/25 11:58:05;;;;;;;;;;;;;;;16.79;46.91;100729.84;5059364;28;1175;-59
2023/05/25 12:00:31;;;;;;;;;;;;;;;17.19;47.86;100719.91;5067473;28;1124;-62
2023/05/25 12:02:56;;;;;;;;;;;;;;;17.08;48.34;100715.53;5098074;28;1086;-61
2023/05/25 12:05:23;;;;;;;;;;;;;;;16.86;47.97;100716.66;5063852;28;1968;-60
2023/05/25 12:07:48;;;;;;;;;;;;;;;16.81;47.16;100705.66;5077674;28;887;-63
2023/05/25 12:10:17;;;;;;;;;;;;;;;16.64;47.14;100705.97;5094163;28;1166;-63
2023/05/25 12:12:43;;;;;;;;;;;;;;;16.55;46.83;100702.13;5098363;28;1058;-62
2023/05/25 12:15:09;;;;;;;;;;;;;;;16.59;46.35;100709.53;5081864;28;1141;-62
2023/05/25 12:17:35;;;;;;;;;;;;;;;17.55;47.68;100705.22;5087410;28;1129;-61
2023/05/25 12:20:00;;;;;;;;;;;;;;;17.15;48.62;100704.25;5097721;28;1121;-64
2023/05/25 12:22:26;;;;;;;;;;;;;;;16.79;48.37;100707.03;5088308;28;1142;-63
2023/05/25 12:24:51;;;;;;;;;;;;;;;16.72;47.72;100705.41;5093543;28;1980;-62
2023/05/25 12:27:18;;;;;;;;;;;;;;;16.68;47.17;100709.81;5098306;28;975;-61
2023/05/25 12:29:46;;;;;;;;;;;;;;;16.58;46.79;100709.81;5097700;28;1077;-60
2023/05/25 12:32:12;;;;;;;;;;;;;;;17.56;47.94;100720.63;5097147;28;931;-62
2023/05/25 12:34:37;;;;;;;;;;;;;;;16.94;48.09;100720.78;5067954;28;1046;-63
2023/05/25 12:37:03;;;;;;;;;;;;;;;16.85;47.38;100733.41;5087515;28;1066;-63
2023/05/25 12:39:28;;;;;;;;;;;;;;;16.76;47.07;100735.91;5065718;28;1257;-63
2023/05/25 12:41:54;;;;;;;;;;;;;;;16.58;47.17;100740.84;5074443;28;1114;-62
2023/05/25 12:44:20;;;;;;;;;;;;;;;17.02;47.63;100752.38;5079042;28;1981;-60
2023/05/25 12:46:46;;;;;;;;;;;;;;;17.00;48.08;100757.31;5089061;28;1409;-62